Pagrindinis puslapis
METAR-TAF:

METAR-TAF

Oro uostai :

Al Khardj, Saudo Arabija

platuma: 24-03-19N, ilguma: 047-33-49E, Aukštis: 503 m

Dabartinis oras

Ataskaita buvo paskelbta 27 minutes, ne 10:00 UTC
Vėjas 14 kt iš Pietų/Pietvakarių
Temperatūra 35°C
Drėgmė 12%
Slėgis 1017 hPa
Matomumas 10 km arba daugiau
nėra debesų žemiau 1500 m ir nėra kamuolinių lietaus debesų

METAR: OEKJ 281000Z 21014KT CAVOK 35/01 Q1017

Laikas: 13:27 (10:27 UTC)

Prognozė

Ataskaita buvo paskelbta 11 valandos ir 27 minutes, ne 23:00 UTC
Prognozė galioja nuo 28 metu 00 UTC su 29 metu 06 UTC
Vėjas 6 kt iš Pietų/Pietvakarių
Matomumas 10 km arba daugiau
nėra debesų žemiau 1500 m ir nėra kamuolinių lietaus debesų
Tapsmas
nuo 28 metu 05 UTC su 28 metu 07 UTC
Vėjas 15 kt iš Pietvakarių
Matomumas: 7000 m
Tapsmas
nuo 28 metu 18 UTC su 28 metu 20 UTC
Vėjas 8 kt iš Pietų
Matomumas 10 km arba daugiau
nėra debesų žemiau 1500 m ir nėra kamuolinių lietaus debesų

TAF: OEKJ 272300Z 2800/2906 20006KT CAVOK BECMG 2805/2807 23015KT 7000 NSC BECMG 2818/2820 17008KT CAVOK

Orai ataskaitas ir orų prognozės (METAR, TAF).

turimą stotys yra geltonos ir raudonos taškus žemėlapyje.

Perkelti pele per norėdami pamatyti stoties vardą.

Tada spustelėkite, norėdami matyti oro stebėjimo ir prognozės.

Norėdami pakeisti žemėlapį: spustelėkite ant žalios mygtukų su juodo kryžiaus žemyn,; žalią mygtuką su brūkšneliu, jei norite nutolinti; arba žalių rodyklių gretimoms žemėlapius.


METAR-TAF: